Deer Meadows, Washington
Current Conditions -  °F | °C
As of 3:58 PM on Saturday 25 Oct 2014 (Local Time) from KSKA Reporting Station
Overcast Overcast  
Wind Chill: 65°   Ceiling: 11000
Heat Index: 65°   Visibility: 10mi
Dew Point: 43°   Wind: 10mph
Humidity: 44%   Direction: 190°S
Pressure: 29.54"   Gusts: NA
Location:  47.7035°N, 118.192°W
Report Text: KSKA 252258Z AUTO 19009KT 10SM OVC110 19/06 A2954 RMK AO2 SLP002 T01860060
Loading
Personal Weather Stations






























Interactive Weather Map
Tropical Storm Tracking
New forecast layout! Learn more

10-Day Weather Forecast

Advertisements
Track Severe Weather on mobile